Time;durP1;ratioP1;P1;durP2;ratioP2;P2;SDS_P1;SDS_P2;PMS_P1;PMS_P2;Temp;Humidity;BMP_temperature;BMP_pressure;BME280_temperature;BME280_humidity;BME280_pressure;Samples;Min_cycle;Max_cycle;Signal;HPM_P1;HPM_P2
2022/04/03 00:01:33;;;;;;;4.15;3.05;;;0.30;1.00;;;;;;4929486;28;20510;-76
2022/04/03 00:04:00;;;;;;;7.43;3.75;;;0.20;1.00;;;;;;4931393;28;20333;-78
2022/04/03 00:06:32;;;;;;;4.32;3.22;;;0.20;1.00;;;;;;4928215;28;20262;-77
2022/04/03 00:09:01;;;;;;;7.38;3.40;;;0.20;1.00;;;;;;4930019;28;20233;-75
2022/04/03 00:11:30;;;;;;;6.45;4.18;;;0.20;1.00;;;;;;4915457;28;20260;-77
2022/04/03 00:14:02;;;;;;;4.40;3.15;;;0.20;1.00;;;;;;4928320;28;20301;-76
2022/04/03 00:16:33;;;;;;;5.82;3.30;;;0.20;1.00;;;;;;4924900;28;20253;-77
2022/04/03 00:19:01;;;;;;;4.50;3.28;;;0.20;1.00;;;;;;4930622;28;20305;-78
2022/04/03 00:21:30;;;;;;;4.80;2.55;;;0.20;1.00;;;;;;4928276;28;20225;-77
2022/04/03 00:24:00;;;;;;;5.32;2.88;;;0.20;1.00;;;;;;4930281;28;20392;-76
2022/04/03 00:26:27;;;;;;;4.55;3.10;;;0.20;1.00;;;;;;4921225;28;20317;-77
2022/04/03 00:28:54;;;;;;;4.03;3.00;;;0.20;1.00;;;;;;4907138;28;20325;-76
2022/04/03 00:31:22;;;;;;;4.07;3.10;;;0.20;1.00;;;;;;4901504;29;20246;-77
2022/04/03 00:33:50;;;;;;;5.13;3.20;;;0.20;1.00;;;;;;4902860;29;20242;-75
2022/04/03 00:36:17;;;;;;;3.53;3.10;;;0.10;1.00;;;;;;4908767;28;20333;-76
2022/04/03 00:38:45;;;;;;;4.85;3.10;;;0.10;1.00;;;;;;4926030;28;20715;-76
2022/04/03 00:41:14;;;;;;;5.55;3.80;;;0.10;1.00;;;;;;4927656;28;20337;-77
2022/04/03 00:43:40;;;;;;;5.63;3.78;;;0.10;1.00;;;;;;4911787;28;20229;-76
2022/04/03 00:46:11;;;;;;;3.90;2.90;;;0.10;1.00;;;;;;4926751;28;20295;-74
2022/04/03 00:48:41;;;;;;;6.80;3.95;;;0.10;1.00;;;;;;4930850;28;20293;-75
2022/04/03 00:51:11;;;;;;;4.47;3.83;;;0.00;1.00;;;;;;4924455;28;20275;-77
2022/04/03 00:53:42;;;;;;;11.02;4.13;;;0.00;1.00;;;;;;4931955;28;20256;-74
2022/04/03 00:56:12;;;;;;;9.00;3.60;;;0.00;1.00;;;;;;4935314;28;20233;-77
2022/04/03 00:58:40;;;;;;;5.70;3.83;;;-0.10;1.00;;;;;;4934330;28;20237;-75
2022/04/03 01:01:13;;;;;;;5.75;4.18;;;-0.10;1.00;;;;;;4930536;28;20278;-78
2022/04/03 01:03:48;;;;;;;4.00;3.05;;;-0.10;1.00;;;;;;4931627;28;20225;-76
2022/04/03 01:06:16;;;;;;;5.47;3.65;;;-0.10;1.00;;;;;;4926836;28;20264;-77
2022/04/03 01:08:43;;;;;;;6.18;5.57;;;-0.10;1.00;;;;;;4924348;28;20352;-76
2022/04/03 01:11:14;;;;;;;5.90;4.25;;;-0.20;1.00;;;;;;4929762;28;20384;-74
2022/04/03 01:13:52;;;;;;;9.00;4.57;;;-0.10;1.00;;;;;;4923817;28;20281;-76
2022/04/03 01:16:22;;;;;;;5.88;4.38;;;-0.10;1.00;;;;;;4934938;28;20212;-76
2022/04/03 01:18:51;;;;;;;5.50;3.17;;;-0.10;1.00;;;;;;4937323;28;20264;-77
2022/04/03 01:21:23;;;;;;;5.13;3.60;;;-0.10;1.00;;;;;;4926160;28;20245;-77
2022/04/03 01:23:51;;;;;;;6.80;3.83;;;-0.10;1.00;;;;;;4931645;28;20246;-75
2022/04/03 01:26:29;;;;;;;6.50;3.40;;;-0.10;1.00;;;;;;4927053;28;20244;-77
2022/04/03 01:29:01;;;;;;;5.45;3.17;;;-0.10;1.00;;;;;;4937370;28;20261;-77
2022/04/03 01:31:30;;;;;;;4.80;3.35;;;-0.10;1.00;;;;;;4927990;28;20241;-75
2022/04/03 01:34:03;;;;;;;5.78;3.28;;;-0.20;1.00;;;;;;4937157;28;20229;-75
2022/04/03 01:36:33;;;;;;;6.50;3.75;;;-0.20;1.00;;;;;;4937854;28;20221;-77
2022/04/03 01:39:01;;;;;;;4.53;3.10;;;-0.20;1.00;;;;;;4937339;28;20320;-77
2022/04/03 01:41:34;;;;;;;5.45;3.28;;;-0.20;1.00;;;;;;4929965;28;20290;-76
2022/04/03 01:44:01;;;;;;;3.55;3.20;;;-0.20;1.00;;;;;;4940721;28;20226;-75
2022/04/03 01:46:31;;;;;;;4.25;3.05;;;-0.20;1.00;;;;;;4933355;28;20285;-76
2022/04/03 01:49:00;;;;;;;6.28;3.90;;;-0.20;1.00;;;;;;4932649;28;20274;-78
2022/04/03 01:51:36;;;;;;;5.88;2.97;;;-0.20;1.00;;;;;;4926334;28;20329;-76
2022/04/03 01:54:03;;;;;;;6.75;3.17;;;-0.20;1.00;;;;;;4935252;28;20249;-75
2022/04/03 01:56:34;;;;;;;6.15;3.50;;;-0.20;1.00;;;;;;4935799;28;20242;-74
2022/04/03 01:59:02;;;;;;;4.35;3.28;;;-0.20;1.00;;;;;;4936837;28;20238;-76
2022/04/03 02:01:30;;;;;;;6.63;3.20;;;-0.20;1.00;;;;;;4932044;28;20236;-76
2022/04/03 02:04:02;;;;;;;4.30;3.10;;;-0.20;1.00;;;;;;4935625;28;20222;-77
2022/04/03 02:06:31;;;;;;;5.53;3.63;;;-0.20;1.00;;;;;;4945990;28;20269;-75
2022/04/03 02:09:01;;;;;;;6.35;3.53;;;-0.10;1.00;;;;;;4945602;28;20292;-76
2022/04/03 02:11:38;;;;;;;4.85;3.30;;;-0.10;1.00;;;;;;4933442;28;20261;-75
2022/04/03 02:14:11;;;;;;;5.50;3.58;;;0.00;1.00;;;;;;4934804;28;20313;-76
2022/04/03 02:16:41;;;;;;;7.18;3.95;;;0.00;1.00;;;;;;4929102;28;20269;-76
2022/04/03 02:19:10;;;;;;;9.15;3.45;;;0.20;1.00;;;;;;4928319;28;20281;-76
2022/04/03 02:21:37;;;;;;;4.43;3.25;;;0.30;1.00;;;;;;4923257;28;20253;-75
2022/04/03 02:24:04;;;;;;;4.75;3.38;;;0.40;1.00;;;;;;4923932;28;20245;-76
2022/04/03 02:26:31;;;;;;;5.70;3.63;;;0.50;1.00;;;;;;4931530;28;20276;-75
2022/04/03 02:28:59;;;;;;;5.38;3.70;;;0.50;1.00;;;;;;4927297;28;20249;-76
2022/04/03 02:31:32;;;;;;;6.38;3.42;;;0.60;1.00;;;;;;4930919;28;20736;-78
2022/04/03 02:34:04;;;;;;;5.07;2.97;;;0.70;1.00;;;;;;4927284;28;20288;-76
2022/04/03 02:36:43;;;;;;;5.13;3.40;;;0.80;1.00;;;;;;4933022;28;20325;-76
2022/04/03 02:39:11;;;;;;;4.57;3.03;;;0.90;1.00;;;;;;4934966;28;20226;-75
2022/04/03 02:41:39;;;;;;;3.28;2.78;;;1.00;1.00;;;;;;4929015;28;20271;-77
2022/04/03 02:44:07;;;;;;;6.57;3.67;;;1.00;1.00;;;;;;4930882;28;20341;-74
2022/04/03 02:46:35;;;;;;;3.30;2.65;;;1.00;1.00;;;;;;4933600;28;20241;-76
2022/04/03 02:49:01;;;;;;;4.05;3.03;;;1.10;1.00;;;;;;4931103;28;20332;-77
2022/04/03 02:51:28;;;;;;;3.30;2.72;;;1.10;1.00;;;;;;4924961;28;20245;-75
2022/04/03 02:53:56;;;;;;;6.20;2.85;;;1.20;1.00;;;;;;4926511;28;20244;-76
2022/04/03 02:56:26;;;;;;;5.78;3.63;;;1.20;1.00;;;;;;4925159;28;20242;-78
2022/04/03 02:58:54;;;;;;;4.85;3.15;;;1.30;1.00;;;;;;4927374;28;20249;-75
2022/04/03 03:01:23;;;;;;;6.00;3.13;;;1.30;1.00;;;;;;4923997;28;20230;-74
2022/04/03 03:03:50;;;;;;;4.13;3.10;;;1.30;1.00;;;;;;4924418;28;20712;-76
2022/04/03 03:06:21;;;;;;;6.07;3.15;;;1.40;1.00;;;;;;4921279;28;20226;-75
2022/04/03 03:08:48;;;;;;;6.03;3.50;;;1.40;1.00;;;;;;4923435;28;20329;-77
2022/04/03 03:11:19;;;;;;;7.22;3.33;;;1.40;1.00;;;;;;4924916;28;21211;-75
2022/04/03 03:13:46;;;;;;;4.28;2.95;;;1.40;1.00;;;;;;4919731;28;20242;-76
2022/04/03 03:16:13;;;;;;;3.60;2.95;;;1.40;1.00;;;;;;4932684;28;20402;-75
2022/04/03 03:18:42;;;;;;;4.35;3.30;;;1.50;1.00;;;;;;4927674;28;20384;-76
2022/04/03 03:21:12;;;;;;;5.05;3.30;;;1.50;1.00;;;;;;4924820;28;20238;-77
2022/04/03 03:23:42;;;;;;;5.75;3.15;;;1.50;1.00;;;;;;4921071;28;20416;-74
2022/04/03 03:26:16;;;;;;;3.97;3.58;;;1.50;1.00;;;;;;4927399;28;20246;-75
2022/04/03 03:28:43;;;;;;;5.32;3.58;;;1.50;1.00;;;;;;4930326;28;20300;-77
2022/04/03 03:31:11;;;;;;;4.07;3.42;;;1.50;1.00;;;;;;4934177;28;20499;-76
2022/04/03 03:33:43;;;;;;;6.78;3.90;;;1.50;1.00;;;;;;4927389;28;20253;-77
2022/04/03 03:36:11;;;;;;;5.03;3.50;;;1.50;1.00;;;;;;4929839;28;20241;-76
2022/04/03 03:38:41;;;;;;;3.60;2.85;;;1.50;1.00;;;;;;4923314;28;20253;-74
2022/04/03 03:41:11;;;;;;;4.95;3.10;;;1.50;1.00;;;;;;4930478;28;20240;-76
2022/04/03 03:43:38;;;;;;;3.80;3.03;;;1.50;1.00;;;;;;4921731;28;20554;-77
2022/04/03 03:46:05;;;;;;;4.65;3.38;;;1.50;1.00;;;;;;4936357;28;20333;-77
2022/04/03 03:48:31;;;;;;;3.33;2.80;;;1.50;1.00;;;;;;4928049;28;20297;-74
2022/04/03 03:51:02;;;;;;;4.95;2.70;;;1.50;1.00;;;;;;4927054;28;20249;-74
2022/04/03 03:53:32;;;;;;;4.75;3.50;;;1.50;1.00;;;;;;4929062;28;20236;-77
2022/04/03 03:56:00;;;;;;;9.82;3.30;;;1.50;1.00;;;;;;4923801;28;20812;-76
2022/04/03 03:58:30;;;;;;;3.80;3.10;;;1.60;1.00;;;;;;4917105;28;20256;-76
2022/04/03 04:01:01;;;;;;;5.75;2.90;;;1.60;1.00;;;;;;4921335;28;20233;-76
2022/04/03 04:03:30;;;;;;;4.78;2.85;;;1.60;1.00;;;;;;4920089;28;20290;-75
2022/04/03 04:06:05;;;;;;;4.43;3.10;;;1.60;1.00;;;;;;4930117;28;20225;-77
2022/04/03 04:08:32;;;;;;;3.80;2.97;;;1.70;1.00;;;;;;4925767;28;20340;-75
2022/04/03 04:11:03;;;;;;;4.88;3.10;;;1.60;1.00;;;;;;4920861;28;21645;-75
2022/04/03 04:13:43;;;;;;;4.45;3.10;;;1.60;1.00;;;;;;4921384;28;20293;-75
2022/04/03 04:19:11;;;;;;;5.75;3.55;;;1.70;1.00;;;;;;4924570;28;20241;-76
2022/04/03 04:21:41;;;;;;;4.35;3.65;;;1.70;1.00;;;;;;4926627;28;20334;-75
2022/04/03 04:24:10;;;;;;;9.45;3.25;;;1.70;1.00;;;;;;4929192;28;20280;-75
2022/04/03 04:26:45;;;;;;;4.88;3.22;;;1.70;1.00;;;;;;4920645;28;20232;-75
2022/04/03 04:29:14;;;;;;;3.97;3.38;;;1.70;1.00;;;;;;4929302;28;20237;-75
2022/04/03 04:31:42;;;;;;;5.00;3.15;;;1.70;1.00;;;;;;4930605;28;20229;-75
2022/04/03 04:34:11;;;;;;;4.18;3.08;;;1.70;1.00;;;;;;4927048;28;21146;-76
2022/04/03 04:37:03;;;;;;;6.07;2.90;;;1.70;1.00;;;;;;4932603;23;20241;-73
2022/04/03 04:39:31;;;;;;;4.40;3.70;;;1.60;1.00;;;;;;4919736;28;20994;-75
2022/04/03 04:42:13;;;;;;;3.78;2.92;;;1.60;1.00;;;;;;4935597;28;20240;-76
2022/04/03 04:44:43;;;;;;;4.72;3.63;;;1.60;1.00;;;;;;4932816;28;20272;-77
2022/04/03 04:47:12;;;;;;;6.97;3.63;;;1.60;1.00;;;;;;4943277;23;20266;-75
2022/04/03 04:49:42;;;;;;;7.70;3.97;;;1.60;1.00;;;;;;4924817;28;20233;-75
2022/04/03 04:55:25;;;;;;;5.03;3.90;;;1.60;1.00;;;;;;4935587;23;20257;31
2022/04/03 04:58:13;;;;;;;5.68;4.18;;;1.60;1.00;;;;;;4885571;29;20230;-77
2022/04/03 05:00:42;;;;;;;4.18;3.70;;;1.60;1.00;;;;;;4887058;29;20231;-74
2022/04/03 05:03:13;;;;;;;5.40;4.03;;;1.60;1.00;;;;;;4892316;29;20227;-77
2022/04/03 05:06:02;;;;;;;4.88;3.70;;;1.70;1.00;;;;;;4907153;23;20288;-76
2022/04/03 05:08:41;;;;;;;4.72;4.03;;;1.70;1.00;;;;;;4946892;28;20257;-77
2022/04/03 05:11:14;;;;;;;4.95;4.10;;;1.70;1.00;;;;;;4938258;28;20281;-75
2022/04/03 05:14:13;;;;;;;7.75;5.00;;;1.70;1.00;;;;;;4929512;28;20257;-75
2022/04/03 05:28:30;;;;;;;6.22;4.45;;;1.80;1.00;;;;;;4941565;28;20906;-76
2022/04/03 05:30:59;;;;;;;4.90;3.78;;;1.70;1.00;;;;;;4961254;28;20228;-78
2022/04/03 05:33:26;;;;;;;5.78;4.00;;;1.70;1.00;;;;;;4959994;28;20237;-78
2022/04/03 05:35:54;;;;;;;4.95;3.95;;;1.80;1.00;;;;;;4965629;28;20341;-73
2022/04/03 05:38:23;;;;;;;4.28;3.50;;;1.80;1.00;;;;;;4968073;28;20252;-76
2022/04/03 05:40:54;;;;;;;4.05;3.40;;;1.90;1.00;;;;;;4970649;28;20281;-77
2022/04/03 05:43:26;;;;;;;4.00;3.55;;;1.90;1.00;;;;;;4969022;28;20260;-77
2022/04/03 05:45:55;;;;;;;3.78;3.20;;;1.90;1.00;;;;;;4971314;28;20251;-76
2022/04/03 05:48:27;;;;;;;3.60;2.70;;;2.00;1.00;;;;;;4968469;28;20272;-75
2022/04/03 05:50:56;;;;;;;5.05;3.53;;;1.90;1.00;;;;;;4971283;28;20224;-75
2022/04/03 05:53:25;;;;;;;9.13;3.90;;;1.90;1.00;;;;;;4973498;28;20224;-76
2022/04/03 05:55:55;;;;;;;7.65;3.35;;;1.80;1.00;;;;;;4969318;28;20249;-78
2022/04/03 05:58:25;;;;;;;4.50;2.90;;;1.90;1.00;;;;;;4950842;28;20276;-76
2022/04/03 06:00:54;;;;;;;3.22;2.60;;;1.90;1.00;;;;;;4956087;28;20255;-77
2022/04/03 06:03:24;;;;;;;4.85;3.53;;;1.90;1.00;;;;;;4960464;28;20240;-75
2022/04/03 06:05:57;;;;;;;4.20;2.72;;;1.90;1.00;;;;;;4972118;28;20224;-77
2022/04/03 06:08:34;;;;;;;4.25;3.05;;;2.00;1.00;;;;;;4962737;28;21185;-75
2022/04/03 06:11:03;;;;;;;5.75;3.38;;;2.10;1.00;;;;;;4968964;28;20560;-76
2022/04/03 06:13:36;;;;;;;3.78;3.38;;;2.10;1.00;;;;;;4969102;28;20240;-75
2022/04/03 06:16:03;;;;;;;4.32;2.90;;;2.20;1.00;;;;;;4988942;23;20238;-77
2022/04/03 06:18:36;;;;;;;4.70;3.65;;;2.20;1.00;;;;;;4949909;28;20288;-76
2022/04/03 06:21:08;;;;;;;4.03;3.15;;;2.20;1.00;;;;;;4963160;28;20231;-77
2022/04/03 06:23:37;;;;;;;6.75;4.88;;;2.20;1.00;;;;;;4958268;28;20249;-75
2022/04/03 06:26:04;;;;;;;5.40;4.18;;;2.30;1.00;;;;;;4960188;28;20301;-76
2022/04/03 06:28:32;;;;;;;6.70;4.10;;;2.50;1.00;;;;;;4961916;28;20252;-75
2022/04/03 06:31:03;;;;;;;3.83;3.22;;;2.60;1.00;;;;;;4962306;28;20233;-77
2022/04/03 06:33:34;;;;;;;6.68;3.72;;;2.70;1.00;;;;;;4962010;28;20228;-77
2022/04/03 06:36:06;;;;;;;4.85;3.50;;;2.80;1.00;;;;;;4966065;28;20331;-77
2022/04/03 06:38:35;;;;;;;4.70;3.42;;;2.80;1.00;;;;;;4961047;28;20236;-77
2022/04/03 06:41:04;;;;;;;3.80;3.30;;;2.90;1.00;;;;;;4965712;28;20237;-77
2022/04/03 06:43:39;;;;;;;6.20;4.20;;;2.90;1.00;;;;;;4965311;28;20246;-76
2022/04/03 06:46:07;;;;;;;4.60;3.63;;;2.90;1.00;;;;;;4937620;23;20587;-77
2022/04/03 06:48:35;;;;;;;6.65;4.90;;;2.90;1.00;;;;;;4894069;29;20419;-76
2022/04/03 06:51:03;;;;;;;4.22;3.80;;;2.80;1.00;;;;;;4887799;29;20242;-76
2022/04/03 06:53:34;;;;;;;5.30;4.07;;;2.70;1.00;;;;;;4883908;29;20245;-76
2022/04/03 06:56:05;;;;;;;4.15;3.75;;;2.60;1.00;;;;;;4885771;29;20238;-76
2022/04/03 06:58:33;;;;;;;5.38;3.35;;;2.70;1.00;;;;;;4873444;29;20249;-77
2022/04/03 07:01:05;;;;;;;6.68;3.70;;;2.70;1.00;;;;;;4866022;29;20254;-76
2022/04/03 07:03:35;;;;;;;4.28;3.63;;;2.90;1.00;;;;;;4871561;29;20300;-77
2022/04/03 07:06:33;;;;;;;5.25;3.95;;;3.00;1.00;;;;;;4916609;23;20239;-77
2022/04/03 07:09:06;;;;;;;4.03;2.63;;;3.00;1.00;;;;;;4957659;28;20740;-75
2022/04/03 07:11:35;;;;;;;7.03;3.50;;;3.20;1.00;;;;;;4961114;28;20314;-77
2022/04/03 07:14:05;;;;;;;4.32;3.88;;;3.40;1.00;;;;;;4962375;28;20228;-76
2022/04/03 07:16:33;;;;;;;4.00;2.92;;;3.70;1.00;;;;;;4977259;23;20235;-77
2022/04/03 07:19:04;;;;;;;3.97;3.15;;;4.10;1.00;;;;;;4981045;28;20246;-76
2022/04/03 07:21:35;;;;;;;3.88;3.40;;;4.40;1.00;;;;;;4988098;28;20299;-77
2022/04/03 07:24:05;;;;;;;4.65;3.50;;;4.60;1.00;;;;;;4975209;28;20268;-78
2022/04/03 07:26:34;;;;;;;4.50;3.10;;;4.80;1.00;;;;;;4970571;23;20241;-75
2022/04/03 07:29:01;;;;;;;4.47;3.22;;;5.10;1.00;;;;;;4959000;28;20256;-76
2022/04/03 07:31:33;;;;;;;4.78;3.30;;;5.30;1.00;;;;;;4966853;28;20275;-77
2022/04/03 07:34:04;;;;;;;4.55;3.00;;;5.60;1.00;;;;;;4969502;28;20244;-77
2022/04/03 07:36:31;;;;;;;4.57;3.58;;;5.60;1.00;;;;;;4957660;23;20240;-76
2022/04/03 07:38:58;;;;;;;3.25;2.42;;;5.70;1.00;;;;;;4949672;28;20252;-76
2022/04/03 07:41:25;;;;;;;3.30;2.90;;;5.80;1.00;;;;;;4948981;28;20316;-77
2022/04/03 07:43:55;;;;;;;3.83;2.50;;;5.90;1.00;;;;;;4948760;28;20253;-76
2022/04/03 07:46:22;;;;;;;3.47;2.28;;;5.90;1.00;;;;;;4964604;23;20389;-77
2022/04/03 07:48:56;;;;;;;3.25;2.60;;;5.70;1.00;;;;;;4971244;28;20280;-74
2022/04/03 07:51:27;;;;;;;3.83;2.90;;;5.60;1.00;;;;;;4965119;28;20216;-77
2022/04/03 07:54:20;;;;;;;3.50;2.72;;;5.60;1.00;;;;;;4975011;28;20224;-77
2022/04/03 07:57:28;;;;;;;;;;;;;;;;;;;;;
2022/04/03 07:59:57;;;;;;;4.30;3.25;;;5.50;1.00;;;;;;4941866;28;50642;-79
2022/04/03 08:02:25;;;;;;;5.00;3.00;;;5.50;1.00;;;;;;4956740;28;20276;-76
2022/04/03 08:04:51;;;;;;;3.50;2.50;;;5.60;1.00;;;;;;4944833;28;20234;-74
2022/04/03 08:10:18;;;;;;;5.07;2.85;;;5.60;1.00;;;;;;4925002;28;20764;-76
2022/04/03 08:12:46;;;;;;;6.00;3.20;;;5.60;1.00;;;;;;4941791;28;20253;-73
2022/04/03 08:15:16;;;;;;;4.47;3.00;;;5.60;1.00;;;;;;4941959;28;20240;-78
2022/04/03 08:17:44;;;;;;;3.00;2.70;;;5.60;1.00;;;;;;4947581;28;20241;-82
2022/04/03 08:20:17;;;;;;;7.55;3.30;;;5.50;1.00;;;;;;4940801;28;20304;-79
2022/04/03 08:22:47;;;;;;;2.97;2.20;;;5.50;1.00;;;;;;4936929;28;20281;-81
2022/04/03 08:25:15;;;;;;;4.28;3.03;;;5.50;1.00;;;;;;4943732;28;20267;-77
2022/04/03 08:27:54;;;;;;;3.50;2.25;;;5.40;1.00;;;;;;4925958;28;20366;-78
2022/04/03 08:30:23;;;;;;;3.53;2.38;;;5.30;1.00;;;;;;4943555;28;20784;-81
2022/04/03 08:32:54;;;;;;;3.28;2.25;;;5.30;1.00;;;;;;4930951;28;20317;-80
2022/04/03 08:35:38;;;;;;;3.70;2.08;;;5.50;1.00;;;;;;4944650;23;20230;-79
2022/04/03 08:38:15;;;;;;;2.88;2.55;;;5.80;1.00;;;;;;4927793;28;20358;-77
2022/04/03 08:40:45;;;;;;;9.07;2.60;;;6.00;1.00;;;;;;4939231;28;20272;-78
2022/04/03 08:46:03;;;;;;;3.47;2.35;;;6.40;1.00;;;;;;4905960;28;20330;-77
2022/04/03 08:48:37;;;;;;;5.18;2.20;;;6.70;1.00;;;;;;4947527;28;20304;-76
2022/04/03 08:51:16;;;;;;;4.63;2.60;;;7.00;1.00;;;;;;4942527;28;21527;-76
2022/04/03 08:53:47;;;;;;;3.00;2.20;;;7.30;1.00;;;;;;4946017;28;20275;-79
2022/04/03 08:56:18;;;;;;;3.78;2.90;;;7.50;1.00;;;;;;4962220;23;20304;-79
2022/04/03 08:58:48;;;;;;;8.05;2.72;;;7.60;1.00;;;;;;4930382;28;20216;-79
2022/04/03 09:01:17;;;;;;;3.40;2.20;;;7.60;1.00;;;;;;4930324;28;20233;-77
2022/04/03 09:06:36;;;;;;;5.28;2.95;;;7.80;1.00;;;;;;4923387;28;20301;-78
2022/04/03 09:09:06;;;;;;;4.63;2.40;;;8.30;1.00;;;;;;4923876;28;20266;-79
2022/04/03 09:11:36;;;;;;;3.00;2.28;;;8.70;1.00;;;;;;4916512;28;20325;-75
2022/04/03 09:14:24;;;;;;;4.82;2.47;;;9.00;1.00;;;;;;4922813;28;21428;-78
2022/04/03 09:16:56;;;;;;;2.50;1.77;;;9.10;1.00;;;;;;4984335;23;20226;-82
2022/04/03 09:19:34;;;;;;;2.70;1.83;;;9.20;1.00;;;;;;4947852;28;20225;-79
2022/04/03 09:22:06;;;;;;;2.33;1.85;;;9.00;1.00;;;;;;4950809;28;20229;-76
2022/04/03 09:24:47;;;;;;;4.85;2.20;;;9.00;1.00;;;;;;4937886;28;20241;-77
2022/04/03 09:27:15;;;;;;;4.80;2.30;;;9.10;1.00;;;;;;4944547;28;20272;-78
2022/04/03 09:29:46;;;;;;;3.60;2.33;;;9.10;1.00;;;;;;4946616;28;20252;-80
2022/04/03 09:32:15;;;;;;;2.40;2.20;;;10.00;1.00;;;;;;4951480;28;20240;-79
2022/04/03 09:34:47;;;;;;;3.38;2.50;;;10.60;1.00;;;;;;4956054;28;20426;-76
2022/04/03 09:37:18;;;;;;;3.60;2.40;;;10.50;1.00;;;;;;4955778;28;20233;-76
2022/04/03 09:39:47;;;;;;;4.43;2.23;;;10.50;1.00;;;;;;4934380;28;20453;-75
2022/04/03 09:42:17;;;;;;;2.60;1.70;;;10.10;1.00;;;;;;4949202;28;20616;-80
2022/04/03 09:44:45;;;;;;;4.20;2.90;;;10.00;1.00;;;;;;4953874;28;20464;-80
2022/04/03 09:47:26;;;;;;;3.73;2.07;;;10.90;1.00;;;;;;4941900;28;20434;-77
2022/04/03 09:53:07;;;;;;;;;;;;;;;;;;;;;
2022/04/03 09:55:46;;;;;;;2.57;2.10;;;11.30;1.00;;;;;;4874817;29;41109;-80
2022/04/03 09:58:27;;;;;;;2.67;2.10;;;11.00;1.00;;;;;;4920593;28;20464;-78
2022/04/03 10:00:57;;;;;;;2.87;2.03;;;11.40;1.00;;;;;;4908363;28;20474;-77
2022/04/03 10:03:34;;;;;;;3.83;2.30;;;11.30;1.00;;;;;;4934180;28;20431;-83
2022/04/03 10:06:09;;;;;;;3.80;2.53;;;11.20;1.00;;;;;;4948025;28;20408;-82
2022/04/03 10:08:37;;;;;;;3.60;2.47;;;11.10;1.00;;;;;;4955241;28;20472;-79
2022/04/03 10:11:07;;;;;;;2.65;1.83;;;10.90;1.00;;;;;;4941736;28;20410;-81
2022/04/03 10:13:36;;;;;;;3.53;2.30;;;10.60;1.00;;;;;;4942020;28;20236;-78
2022/04/03 10:16:06;;;;;;;2.80;1.83;;;10.20;1.00;;;;;;4941590;28;20423;-78
2022/04/03 10:18:34;;;;;;;3.70;2.35;;;9.80;1.00;;;;;;4943485;28;20572;-81
2022/04/03 10:21:08;;;;;;;3.47;2.50;;;9.60;1.00;;;;;;4948838;28;20221;-81
2022/04/03 10:23:35;;;;;;;2.67;1.70;;;9.30;1.00;;;;;;4950027;28;20299;-85
2022/04/03 10:26:09;;;;;;;5.23;2.40;;;9.30;1.00;;;;;;4951792;28;20229;-80
2022/04/03 10:28:46;;;;;;;3.70;1.80;;;10.60;1.00;;;;;;4954939;28;20509;-82
2022/04/03 10:31:17;;;;;;;4.40;2.73;;;11.80;1.00;;;;;;4949160;28;20548;-83
2022/04/03 10:33:51;;;;;;;3.23;2.03;;;12.00;1.00;;;;;;4954756;28;20425;-82
2022/04/03 10:36:27;;;;;;;4.27;2.90;;;11.60;1.00;;;;;;4952046;28;20552;-83
2022/04/03 10:39:04;;;;;;;4.20;2.80;;;11.50;1.00;;;;;;4951450;28;20445;-83
2022/04/03 10:41:35;;;;;;;2.60;1.93;;;12.50;1.00;;;;;;4948110;28;20435;-82
2022/04/03 10:44:15;;;;;;;3.60;2.17;;;12.10;1.00;;;;;;4949820;28;20426;-80
2022/04/03 10:47:24;;;;;;;4.10;2.20;;;11.10;1.00;;;;;;4957080;28;20474;-82
2022/04/03 10:50:05;;;;;;;6.70;3.92;;;10.20;1.00;;;;;;4952374;28;20568;-84
2022/04/03 10:52:53;;;;;;;4.50;2.97;;;10.10;1.00;;;;;;4948718;28;20236;-84
2022/04/03 10:55:35;;;;;;;2.88;2.38;;;10.70;1.00;;;;;;4954632;28;20249;-83
2022/04/03 10:58:17;;;;;;;4.25;2.30;;;10.50;1.00;;;;;;4953595;28;20212;-82
2022/04/03 11:00:49;;;;;;;4.80;2.37;;;10.10;1.00;;;;;;4955206;28;20382;-82
2022/04/03 11:03:36;;;;;;;5.83;1.93;;;11.10;1.00;;;;;;4943988;28;20496;-81
2022/04/03 11:06:25;;;;;;;4.10;2.50;;;11.80;1.00;;;;;;4950884;28;20434;-81
2022/04/03 11:09:25;;;;;;;3.73;2.57;;;11.30;1.00;;;;;;4946635;28;20512;-82
2022/04/03 11:11:58;;;;;;;3.00;2.30;;;13.30;1.00;;;;;;4945163;28;20473;-83
2022/04/03 11:14:56;;;;;;;2.60;2.10;;;15.90;1.00;;;;;;4944033;28;20418;-83
2022/04/03 11:18:04;;;;;;;3.43;2.30;;;17.80;1.00;;;;;;4950025;28;20441;-81
2022/04/03 11:20:45;;;;;;;3.83;2.43;;;18.60;1.00;;;;;;4950068;28;20441;-82
2022/04/03 11:23:17;;;;;;;6.80;4.07;;;17.40;1.00;;;;;;4948666;28;20465;-80
2022/04/03 11:25:47;;;;;;;4.17;2.53;;;16.50;1.00;;;;;;4950885;28;20442;-81
2022/04/03 11:28:18;;;;;;;2.70;2.43;;;15.30;1.00;;;;;;4953681;28;20465;-81
2022/04/03 11:31:05;;;;;;;2.80;2.50;;;14.10;1.00;;;;;;4942307;28;20423;-82
2022/04/03 11:33:46;;;;;;;3.50;2.63;;;13.20;1.00;;;;;;4947331;28;20425;-81
2022/04/03 11:36:18;;;;;;;3.20;2.77;;;13.70;1.00;;;;;;4942864;28;20425;-81
2022/04/03 11:38:47;;;;;;;2.70;2.20;;;15.50;1.00;;;;;;4947546;28;20441;-82
2022/04/03 11:41:17;;;;;;;2.87;2.40;;;17.20;1.00;;;;;;4952454;28;20436;-81
2022/04/03 11:44:07;;;;;;;3.83;2.57;;;16.90;1.00;;;;;;4952095;28;20487;-80
2022/04/03 11:47:00;;;;;;;2.90;2.40;;;15.90;1.00;;;;;;4943825;28;21314;-81
2022/04/03 11:49:38;;;;;;;4.23;3.60;;;15.30;1.00;;;;;;4953591;28;20501;-83
2022/04/03 11:52:15;;;;;;;3.90;2.67;;;14.40;1.00;;;;;;4943184;28;20406;-82
2022/04/03 11:54:57;;;;;;;4.40;2.30;;;13.90;1.00;;;;;;4940489;28;20453;-84
2022/04/03 11:57:28;;;;;;;2.90;2.50;;;13.50;1.00;;;;;;4924992;28;20485;-82
2022/04/03 11:59:57;;;;;;;4.90;3.13;;;13.00;1.00;;;;;;4944812;28;20446;-81
2022/04/03 12:02:27;;;;;;;3.37;2.23;;;12.20;1.00;;;;;;4944185;28;20449;-81
2022/04/03 12:04:57;;;;;;;3.00;2.67;;;11.60;1.00;;;;;;4945680;28;20574;-80
2022/04/03 12:07:38;;;;;;;5.93;3.80;;;11.00;1.00;;;;;;4957741;28;20428;-82
2022/04/03 12:10:14;;;;;;;7.27;5.63;;;10.90;1.00;;;;;;4949066;28;20439;-82
2022/04/03 12:12:58;;;;;;;5.50;3.77;;;11.40;1.00;;;;;;4928764;28;20449;-82
2022/04/03 12:15:30;;;;;;;4.40;2.20;;;13.60;1.00;;;;;;4938802;28;20448;-80
2022/04/03 12:18:09;;;;;;;;;;;;;;;;;;;;;
2022/04/03 12:20:36;;;;;;;4.10;2.57;;;16.30;1.00;;;;;;4941323;28;39304;-81
2022/04/03 12:23:09;;;;;;;2.80;2.17;;;15.50;1.00;;;;;;4946998;28;20433;-82
2022/04/03 12:25:36;;;;;;;3.33;2.60;;;14.40;1.00;;;;;;4941517;28;20794;-81
2022/04/03 12:28:10;;;;;;;5.47;3.53;;;13.40;1.00;;;;;;4948833;28;20470;-80
2022/04/03 12:30:38;;;;;;;4.40;2.30;;;12.60;1.00;;;;;;4946905;28;21365;-83
2022/04/03 12:33:07;;;;;;;3.30;2.40;;;12.10;1.00;;;;;;4947179;28;20422;-82
2022/04/03 12:35:36;;;;;;;3.07;2.10;;;11.40;1.00;;;;;;4951995;28;20501;-81
2022/04/03 12:38:15;;;;;;;3.43;2.37;;;10.90;1.00;;;;;;4952172;28;20624;-82
2022/04/03 12:40:58;;;;;;;4.03;1.90;;;10.60;1.00;;;;;;4937000;28;20530;-82
2022/04/03 12:43:26;;;;;;;2.60;1.90;;;12.90;1.00;;;;;;4927473;28;20403;-80
2022/04/03 12:45:57;;;;;;;2.50;2.30;;;15.20;1.00;;;;;;4950162;28;20449;-81
2022/04/03 12:48:27;;;;;;;3.67;2.20;;;15.20;1.00;;;;;;4923808;28;20462;-82
2022/04/03 12:51:08;;;;;;;3.30;2.10;;;14.10;1.00;;;;;;4944404;28;20420;-81
2022/04/03 12:53:59;;;;;;;3.57;2.30;;;13.10;1.00;;;;;;4934812;28;20418;-82
2022/04/03 12:59:29;;;;;;;3.87;3.20;;;14.00;1.00;;;;;;4944109;28;20484;-80
2022/04/03 13:01:56;;;;;;;3.73;3.17;;;15.10;1.00;;;;;;4947984;28;20543;-80
2022/04/03 13:04:31;;;;;;;4.90;2.50;;;15.10;1.00;;;;;;4949805;28;20437;-82
2022/04/03 13:06:58;;;;;;;2.83;2.30;;;14.10;1.00;;;;;;4956415;28;20476;-81
2022/04/03 13:09:26;;;;;;;3.60;2.17;;;14.00;1.00;;;;;;4959500;28;20516;-82
2022/04/03 13:11:54;;;;;;;5.00;2.00;;;15.70;1.00;;;;;;4956023;28;20495;-79
2022/04/03 13:14:28;;;;;;;3.73;2.70;;;16.40;1.00;;;;;;4945036;28;20473;-81
2022/04/03 13:16:57;;;;;;;2.97;2.30;;;15.10;1.00;;;;;;4949021;28;20485;-81
2022/04/03 13:19:31;;;;;;;6.03;2.77;;;13.70;1.00;;;;;;4943798;28;20432;-82
2022/04/03 13:22:05;;;;;;;6.70;2.90;;;12.50;1.00;;;;;;4944550;28;20466;-83
2022/04/03 13:24:35;;;;;;;3.93;2.30;;;11.60;1.00;;;;;;4955326;28;20493;-81
2022/04/03 13:27:18;;;;;;;4.47;1.97;;;10.80;1.00;;;;;;4940481;28;20542;-81
2022/04/03 13:29:46;;;;;;;4.90;2.30;;;10.30;1.00;;;;;;4942813;28;20437;-82
2022/04/03 13:32:27;;;;;;;6.83;4.17;;;11.10;1.00;;;;;;4949406;28;20471;-82
2022/04/03 13:35:17;;;;;;;4.97;2.17;;;13.80;1.00;;;;;;4948101;28;20493;-81
2022/04/03 13:37:48;;;;;;;3.70;2.50;;;15.70;1.00;;;;;;4935866;28;20435;-81
2022/04/03 13:40:18;;;;;;;3.30;2.10;;;15.40;1.00;;;;;;4948367;28;20499;-80
2022/04/03 13:42:48;;;;;;;2.77;1.93;;;14.60;1.00;;;;;;4952324;28;20416;-79
2022/04/03 13:45:16;;;;;;;4.20;1.70;;;13.80;1.00;;;;;;4965009;28;24273;-81
2022/04/03 13:47:47;;;;;;;4.27;2.53;;;12.90;1.00;;;;;;4999109;23;20421;-81
2022/04/03 13:50:18;;;;;;;4.70;2.40;;;12.10;1.00;;;;;;4930726;28;20451;-80
2022/04/03 13:52:48;;;;;;;4.57;2.70;;;11.60;1.00;;;;;;4935593;28;20446;-80
2022/04/03 13:55:17;;;;;;;3.30;1.70;;;10.90;1.00;;;;;;4925478;28;20482;-81
2022/04/03 13:57:47;;;;;;;3.80;2.03;;;10.60;1.00;;;;;;4924426;29;20441;-81
2022/04/03 14:00:16;;;;;;;2.23;1.70;;;10.40;1.00;;;;;;4926042;28;20977;-81
2022/04/03 14:02:55;;;;;;;3.17;2.20;;;10.30;1.00;;;;;;4944297;28;20431;-80
2022/04/03 14:05:42;;;;;;;;;;;;;;;;;;;;;
2022/04/03 14:08:17;;;;;;;3.00;1.93;;;10.00;1.00;;;;;;4937051;28;39759;-81